createdAt,value
2022-09-14T00:02:07.006Z,18.35
2022-09-14T00:05:06.963Z,18.35
2022-09-14T00:08:06.969Z,18.35
2022-09-14T00:11:06.964Z,18.35
2022-09-14T00:14:06.949Z,18.35
2022-09-14T00:17:07.002Z,18.35
2022-09-14T00:20:06.952Z,18.35
2022-09-14T00:23:07.025Z,18.35
2022-09-14T00:26:06.956Z,18.35
2022-09-14T00:29:06.954Z,18.35
2022-09-14T00:32:07.054Z,18.35
2022-09-14T00:35:06.965Z,18.35
2022-09-14T00:38:06.956Z,18.35
2022-09-14T00:41:06.961Z,18.35
2022-09-14T00:44:06.964Z,18.35
2022-09-14T00:47:06.958Z,18.35
2022-09-14T00:50:07.040Z,18.35
2022-09-14T00:53:06.964Z,18.35
2022-09-14T00:56:06.969Z,18.35
2022-09-14T00:59:06.955Z,18.35
2022-09-14T01:02:07.035Z,18.35
2022-09-14T01:05:06.969Z,18.35
2022-09-14T01:08:06.960Z,18.35
2022-09-14T01:11:06.963Z,18.35
2022-09-14T01:14:06.968Z,18.35
2022-09-14T01:17:06.969Z,18.35
2022-09-14T01:20:06.972Z,18.35
2022-09-14T01:23:06.977Z,18.35
2022-09-14T01:26:07.016Z,18.35
2022-09-14T01:29:06.972Z,18.35
2022-09-14T01:32:06.984Z,18.35
2022-09-14T01:35:06.975Z,18.35
2022-09-14T01:38:06.971Z,18.35
2022-09-14T01:41:06.991Z,18.3
2022-09-14T01:44:06.983Z,18.3
2022-09-14T01:47:06.982Z,18.3
2022-09-14T01:50:06.979Z,18.3
2022-09-14T01:53:06.982Z,18.3
2022-09-14T01:56:06.980Z,18.25
2022-09-14T01:59:06.992Z,18.25
2022-09-14T02:02:07.060Z,18.25
2022-09-14T02:05:06.982Z,18.25
2022-09-14T02:08:06.980Z,18.25
2022-09-14T02:11:06.991Z,18.25
2022-09-14T02:14:06.994Z,18.25
2022-09-14T02:17:06.974Z,18.25
2022-09-14T02:20:06.985Z,18.25
2022-09-14T02:23:06.982Z,18.25
2022-09-14T02:26:06.988Z,18.25
2022-09-14T02:29:06.986Z,18.25
2022-09-14T02:32:06.995Z,18.25
2022-09-14T02:35:06.987Z,18.25
2022-09-14T02:38:06.982Z,18.25
2022-09-14T02:41:06.983Z,18.25
2022-09-14T02:44:07.000Z,18.25
2022-09-14T02:47:07.034Z,18.25
2022-09-14T02:50:06.982Z,18.25
2022-09-14T02:53:06.988Z,18.25
2022-09-14T02:56:06.991Z,18.25
2022-09-14T02:59:06.987Z,18.25
2022-09-14T03:02:07.060Z,18.25
2022-09-14T03:05:06.988Z,18.25
2022-09-14T03:08:06.982Z,18.25
2022-09-14T03:11:06.981Z,18.25
2022-09-14T03:14:06.984Z,18.25
2022-09-14T03:17:06.995Z,18.25
2022-09-14T03:20:06.986Z,18.25
2022-09-14T03:23:06.990Z,18.25
2022-09-14T03:26:06.988Z,18.2
2022-09-14T03:29:06.986Z,18.2
2022-09-14T03:32:06.991Z,18.2
2022-09-14T03:35:06.991Z,18.2
2022-09-14T03:38:06.983Z,18.2
2022-09-14T03:41:06.993Z,18.2
2022-09-14T03:44:06.998Z,18.2
2022-09-14T03:47:06.997Z,18.2
2022-09-14T03:50:06.983Z,18.2
2022-09-14T03:53:06.995Z,18.15
2022-09-14T03:56:06.992Z,18.15
2022-09-14T03:59:07.002Z,18.15
2022-09-14T04:02:07.032Z,18.15
2022-09-14T04:05:07.007Z,18.15
2022-09-14T04:08:06.995Z,18.15
2022-09-14T04:11:06.999Z,18.1
2022-09-14T04:14:06.994Z,18.1
2022-09-14T04:17:07.001Z,18.1
2022-09-14T04:20:06.995Z,18.1
2022-09-14T04:23:06.995Z,18.1
2022-09-14T04:26:06.999Z,18.1
2022-09-14T04:29:06.993Z,18.1
2022-09-14T04:32:06.999Z,18.1
2022-09-14T04:35:07.004Z,18.1
2022-09-14T04:38:06.998Z,18.1
2022-09-14T04:41:06.993Z,18.1
2022-09-14T04:44:07.097Z,18.1
2022-09-14T04:47:07.004Z,18.1
2022-09-14T04:50:07.001Z,18.1
2022-09-14T04:53:07.010Z,18.1
2022-09-14T04:56:07.040Z,18.1
2022-09-14T04:59:07.052Z,18.1
2022-09-14T05:02:07.192Z,18.1
2022-09-14T05:05:07.009Z,18.1
2022-09-14T05:08:07.003Z,18.1
2022-09-14T05:11:07.007Z,18.1
2022-09-14T05:14:07.005Z,18.05
2022-09-14T05:17:07.011Z,18.05
2022-09-14T05:20:07.013Z,18.05
2022-09-14T05:23:07.019Z,18.05
2022-09-14T05:26:07.007Z,18.05
2022-09-14T05:29:07.013Z,18.05
2022-09-14T05:32:07.010Z,18.05
2022-09-14T05:35:07.014Z,18.05
2022-09-14T05:38:07.020Z,18.05
2022-09-14T05:41:07.010Z,18.05
2022-09-14T05:44:07.002Z,18.05
2022-09-14T05:47:07.010Z,18.05
2022-09-14T05:50:07.009Z,18.05
2022-09-14T05:53:07.011Z,18.05
2022-09-14T05:56:07.014Z,18.05
2022-09-14T05:59:07.002Z,18.05
2022-09-14T06:02:07.055Z,18.05
2022-09-14T06:05:07.062Z,18
2022-09-14T06:08:07.020Z,18.05
2022-09-14T06:14:07.012Z,18
2022-09-14T06:17:07.008Z,18
2022-09-14T06:20:07.009Z,18
2022-09-14T06:23:07.015Z,18
2022-09-14T06:26:07.011Z,18.05
2022-09-14T06:29:07.015Z,18.05
2022-09-14T06:32:07.007Z,18.05
2022-09-14T06:35:10.391Z,18.05
2022-09-14T06:38:07.010Z,18.05
2022-09-14T06:41:07.011Z,18.1
2022-09-14T06:44:07.012Z,18.1
2022-09-14T06:47:07.020Z,18.1
2022-09-14T06:50:07.010Z,18.1
2022-09-14T06:53:07.019Z,18.1
2022-09-14T06:56:07.005Z,18.1
2022-09-14T06:59:07.013Z,18.1
2022-09-14T07:02:07.009Z,18.15
2022-09-14T07:05:07.012Z,18.15
2022-09-14T07:08:10.227Z,18.15
2022-09-14T07:11:07.010Z,18.15
2022-09-14T07:14:07.015Z,18.1
2022-09-14T07:17:07.013Z,18.15
2022-09-14T07:20:07.015Z,18.15
2022-09-14T07:23:07.024Z,18.15
2022-09-14T07:26:07.019Z,18.2
2022-09-14T07:29:07.030Z,18.2
2022-09-14T07:32:07.025Z,18.2
2022-09-14T07:35:07.026Z,18.25
2022-09-14T07:38:07.026Z,18.25
2022-09-14T07:41:07.023Z,18.25
2022-09-14T07:44:07.027Z,18.25
2022-09-14T07:47:07.013Z,18.3
2022-09-14T07:50:07.014Z,18.3
2022-09-14T07:53:07.024Z,18.4
2022-09-14T07:56:07.020Z,18.4
2022-09-14T07:59:31.213Z,18.4
2022-09-14T08:02:07.119Z,18.45
2022-09-14T08:05:07.027Z,18.45
2022-09-14T08:08:07.027Z,18.45
2022-09-14T08:11:07.029Z,18.45
2022-09-14T08:14:07.024Z,18.45
2022-09-14T08:17:07.021Z,18.45
2022-09-14T08:20:07.032Z,18.45
2022-09-14T08:23:07.027Z,18.45
2022-09-14T08:26:07.029Z,18.5
2022-09-14T08:29:07.018Z,18.5
2022-09-14T08:32:07.106Z,18.55
2022-09-14T08:35:07.042Z,18.55
2022-09-14T08:38:07.028Z,18.55
2022-09-14T08:41:07.030Z,18.55
2022-09-14T08:44:07.021Z,18.55
2022-09-14T08:47:07.030Z,18.55
2022-09-14T08:50:07.032Z,18.55
2022-09-14T08:53:07.029Z,18.55
2022-09-14T08:56:07.023Z,18.6
2022-09-14T08:59:07.026Z,18.6
2022-09-14T09:02:07.040Z,18.65
2022-09-14T09:05:07.026Z,18.65
2022-09-14T09:08:07.040Z,18.65
2022-09-14T09:11:07.030Z,18.65
2022-09-14T09:14:07.035Z,18.65
2022-09-14T09:17:07.032Z,18.7
2022-09-14T09:20:07.028Z,18.75
2022-09-14T09:23:07.035Z,18.8
2022-09-14T09:26:07.034Z,18.8
2022-09-14T09:29:07.036Z,18.8
2022-09-14T09:32:07.085Z,18.8
2022-09-14T09:35:07.033Z,18.8
2022-09-14T09:38:07.036Z,18.8
2022-09-14T09:41:07.033Z,18.85
2022-09-14T09:44:07.040Z,18.85
2022-09-14T09:47:07.083Z,18.9
2022-09-14T09:50:07.031Z,18.9
2022-09-14T09:53:07.041Z,18.9
2022-09-14T09:56:07.041Z,18.95
2022-09-14T09:59:07.042Z,18.95
2022-09-14T10:02:07.080Z,18.95
2022-09-14T10:05:07.055Z,18.95
2022-09-14T10:08:11.360Z,19
2022-09-14T10:11:07.049Z,19.05
2022-09-14T10:14:07.057Z,19.05
2022-09-14T10:17:07.045Z,19.05
2022-09-14T10:20:07.037Z,19.1
2022-09-14T10:23:07.542Z,19.1
2022-09-14T10:26:07.526Z,19.15
2022-09-14T10:29:07.534Z,19.15
2022-09-14T10:32:07.540Z,19.2
2022-09-14T10:35:07.533Z,19.3
2022-09-14T10:38:07.532Z,19.3
2022-09-14T10:41:07.530Z,19.4
2022-09-14T10:44:07.529Z,19.4
2022-09-14T10:47:07.533Z,19.5
2022-09-14T10:50:07.539Z,19.45
2022-09-14T10:53:07.537Z,19.45
2022-09-14T10:56:07.538Z,19.45
2022-09-14T10:59:07.531Z,19.4
2022-09-14T11:02:07.593Z,19.4
2022-09-14T11:05:07.535Z,19.4
2022-09-14T11:08:07.532Z,19.4
2022-09-14T11:11:11.279Z,19.4
2022-09-14T11:14:07.525Z,19.4
2022-09-14T11:17:07.535Z,19.4
2022-09-14T11:20:07.537Z,19.4
2022-09-14T11:23:07.541Z,19.4
2022-09-14T11:26:07.533Z,19.4
2022-09-14T11:29:07.532Z,19.4
2022-09-14T11:32:20.734Z,19.4
2022-09-14T11:35:07.536Z,19.35
2022-09-14T11:38:07.535Z,19.35
2022-09-14T11:41:07.533Z,19.35
2022-09-14T11:44:07.535Z,19.35
2022-09-14T11:47:07.529Z,19.35
2022-09-14T11:50:07.640Z,19.35
2022-09-14T11:53:07.531Z,19.35
2022-09-14T11:56:07.532Z,19.35
2022-09-14T11:59:07.530Z,19.35
2022-09-14T12:02:07.576Z,19.35
2022-09-14T12:05:07.532Z,19.35
2022-09-14T12:08:07.537Z,19.4
2022-09-14T12:11:07.534Z,19.5
2022-09-14T12:14:07.534Z,19.5
2022-09-14T12:17:22.696Z,19.55
2022-09-14T12:20:07.622Z,19.55
2022-09-14T12:23:07.537Z,19.65
2022-09-14T12:26:07.535Z,19.7
2022-09-14T12:29:07.536Z,19.75
2022-09-14T12:32:07.549Z,19.8
2022-09-14T12:35:07.545Z,19.85
2022-09-14T12:38:07.545Z,19.85
2022-09-14T12:41:07.548Z,19.95
2022-09-14T12:44:07.538Z,19.95
2022-09-14T12:47:07.543Z,19.95
2022-09-14T12:50:07.555Z,19.95
2022-09-14T12:53:07.538Z,19.95
2022-09-14T12:56:07.535Z,19.95
2022-09-14T12:59:07.535Z,19.9
2022-09-14T13:02:07.595Z,19.9
2022-09-14T13:05:07.538Z,19.85
2022-09-14T13:08:07.536Z,19.85
2022-09-14T13:11:07.542Z,19.85
2022-09-14T13:14:07.534Z,19.85
2022-09-14T13:17:07.537Z,19.9
2022-09-14T13:20:07.522Z,19.9
2022-09-14T13:23:07.538Z,19.9
2022-09-14T13:26:07.558Z,19.9
2022-09-14T13:29:07.532Z,19.9
2022-09-14T13:32:07.544Z,19.9
2022-09-14T13:35:07.543Z,19.9
2022-09-14T13:38:07.558Z,19.9
2022-09-14T13:41:07.561Z,19.9
2022-09-14T13:44:07.569Z,19.9
2022-09-14T13:47:07.557Z,19.9
2022-09-14T13:50:07.552Z,19.9
2022-09-14T13:53:07.562Z,19.9
2022-09-14T13:56:07.555Z,19.9
2022-09-14T13:59:07.553Z,19.9
2022-09-14T14:02:07.582Z,19.95
2022-09-14T14:05:07.558Z,19.95
2022-09-14T14:08:07.557Z,19.9
2022-09-14T14:11:07.554Z,19.95
2022-09-14T14:14:07.562Z,19.95
2022-09-14T14:17:07.551Z,19.9
2022-09-14T14:20:07.560Z,19.9
2022-09-14T14:23:07.557Z,19.8
2022-09-14T14:26:07.551Z,19.8
2022-09-14T14:29:07.552Z,19.8
2022-09-14T14:32:07.578Z,19.8
2022-09-14T14:35:07.583Z,19.8
2022-09-14T14:38:07.558Z,19.75
2022-09-14T14:41:07.575Z,19.75
2022-09-14T14:44:07.559Z,19.75
2022-09-14T14:47:07.562Z,19.75
2022-09-14T14:50:07.563Z,19.7
2022-09-14T14:53:07.561Z,19.7
2022-09-14T14:56:07.561Z,19.7
2022-09-14T14:59:07.568Z,19.7
2022-09-14T15:02:07.562Z,19.7
2022-09-14T15:05:07.562Z,19.65
2022-09-14T15:08:07.557Z,19.65
2022-09-14T15:11:07.554Z,19.65
2022-09-14T15:14:07.561Z,19.65
2022-09-14T15:17:07.570Z,19.65
2022-09-14T15:20:07.570Z,19.65
2022-09-14T15:23:07.562Z,19.65
2022-09-14T15:26:07.562Z,19.65
2022-09-14T15:29:07.562Z,19.65
2022-09-14T15:32:07.634Z,19.65
2022-09-14T15:35:07.576Z,19.65
2022-09-14T15:38:07.559Z,19.65
2022-09-14T15:41:07.570Z,19.7
2022-09-14T15:44:07.566Z,19.7
2022-09-14T15:47:07.564Z,19.7
2022-09-14T15:50:07.576Z,19.75
2022-09-14T15:53:07.564Z,19.75
2022-09-14T15:56:07.601Z,19.8
2022-09-14T15:59:07.623Z,19.8
2022-09-14T16:02:07.658Z,19.8
2022-09-14T16:05:07.582Z,19.8
2022-09-14T16:08:07.576Z,19.75
2022-09-14T16:11:07.566Z,19.75
2022-09-14T16:14:07.568Z,19.8
2022-09-14T16:17:07.574Z,19.75
2022-09-14T16:20:07.652Z,19.75
2022-09-14T16:23:07.608Z,19.75
2022-09-14T16:26:07.604Z,19.75
2022-09-14T16:29:07.580Z,19.75
2022-09-14T16:32:07.630Z,19.75
2022-09-14T16:35:08.379Z,19.8
2022-09-14T16:38:07.586Z,19.8
2022-09-14T16:41:07.579Z,19.8
2022-09-14T16:44:07.582Z,19.7
2022-09-14T16:47:07.575Z,19.7
2022-09-14T16:50:07.583Z,19.75
2022-09-14T16:53:07.569Z,19.75
2022-09-14T16:56:07.570Z,19.75
2022-09-14T16:59:07.585Z,19.75
2022-09-14T17:02:07.613Z,19.75
2022-09-14T17:05:07.586Z,19.75
2022-09-14T17:08:07.583Z,19.75
2022-09-14T17:11:07.578Z,19.75
2022-09-14T17:14:07.577Z,19.7
2022-09-14T17:17:07.579Z,19.7
2022-09-14T17:20:07.581Z,19.7
2022-09-14T17:23:07.588Z,19.7
2022-09-14T17:26:07.580Z,19.65
2022-09-14T17:29:07.587Z,19.65
2022-09-14T17:32:10.224Z,19.65
2022-09-14T17:35:07.583Z,19.65
2022-09-14T17:38:07.579Z,19.65
2022-09-14T17:41:07.583Z,19.6
2022-09-14T17:44:07.587Z,19.6
2022-09-14T17:47:07.613Z,19.6
2022-09-14T17:50:07.602Z,19.6
2022-09-14T17:53:07.591Z,19.6
2022-09-14T17:56:07.578Z,19.55
2022-09-14T17:59:07.584Z,19.55
2022-09-14T18:02:07.583Z,19.5
2022-09-14T18:05:07.592Z,19.5
2022-09-14T18:08:07.589Z,19.5
2022-09-14T18:11:07.587Z,19.5
2022-09-14T18:14:07.583Z,19.4
2022-09-14T18:17:07.587Z,19.4
2022-09-14T18:20:07.596Z,19.4
2022-09-14T18:23:07.585Z,19.35
2022-09-14T18:26:07.584Z,19.35
2022-09-14T18:29:07.604Z,19.35
2022-09-14T18:32:07.595Z,19.35
2022-09-14T18:35:07.596Z,19.3
2022-09-14T18:38:07.598Z,19.25
2022-09-14T18:41:07.589Z,19.25
2022-09-14T18:44:07.593Z,19.25
2022-09-14T18:47:07.636Z,19.2
2022-09-14T18:50:07.606Z,19.2
2022-09-14T18:53:07.705Z,19.15
2022-09-14T18:56:07.699Z,19.15
2022-09-14T18:59:07.613Z,19.15
2022-09-14T19:02:07.668Z,19.1
2022-09-14T19:05:07.623Z,19.1
2022-09-14T19:08:07.711Z,19.1
2022-09-14T19:11:07.619Z,19.05
2022-09-14T19:14:07.617Z,19.05
2022-09-14T19:17:07.637Z,19.05
2022-09-14T19:20:07.623Z,19.05
2022-09-14T19:23:07.613Z,19
2022-09-14T19:26:07.614Z,19
2022-09-14T19:29:07.617Z,19
2022-09-14T19:32:07.611Z,19
2022-09-14T19:35:07.616Z,19
2022-09-14T19:38:07.628Z,18.95
2022-09-14T19:41:07.618Z,18.95
2022-09-14T19:44:07.655Z,18.95
2022-09-14T19:47:07.618Z,18.9
2022-09-14T19:50:07.625Z,18.9
2022-09-14T19:53:07.621Z,18.9
2022-09-14T19:56:07.643Z,18.9
2022-09-14T19:59:07.610Z,18.9
2022-09-14T20:02:07.774Z,18.9
2022-09-14T20:05:07.617Z,18.9
2022-09-14T20:08:07.617Z,18.85
2022-09-14T20:11:07.614Z,18.85
2022-09-14T20:14:07.617Z,18.85
2022-09-14T20:17:07.615Z,18.85
2022-09-14T20:20:07.617Z,18.85
2022-09-14T20:23:07.621Z,18.85
2022-09-14T20:26:07.618Z,18.8
2022-09-14T20:29:07.614Z,18.8
2022-09-14T20:32:07.617Z,18.8
2022-09-14T20:35:07.614Z,18.8
2022-09-14T20:38:07.613Z,18.8
2022-09-14T20:41:07.629Z,18.8
2022-09-14T20:44:07.619Z,18.8
2022-09-14T20:47:07.613Z,18.75
2022-09-14T20:50:07.617Z,18.75
2022-09-14T20:53:07.615Z,18.75
2022-09-14T20:56:07.626Z,18.75
2022-09-14T20:59:07.615Z,18.75
2022-09-14T21:02:07.626Z,18.75
2022-09-14T21:05:07.632Z,18.75
2022-09-14T21:08:07.615Z,18.7
2022-09-14T21:11:07.625Z,18.7
2022-09-14T21:14:07.612Z,18.7
2022-09-14T21:17:07.614Z,18.7
2022-09-14T21:20:07.615Z,18.7
2022-09-14T21:23:07.619Z,18.7
2022-09-14T21:26:07.631Z,18.7
2022-09-14T21:29:07.650Z,18.7
2022-09-14T21:32:09.069Z,18.7
2022-09-14T21:35:07.654Z,18.7
2022-09-14T21:38:07.622Z,18.7
2022-09-14T21:41:07.628Z,18.65
2022-09-14T21:44:07.624Z,18.65
2022-09-14T21:47:07.620Z,18.65
2022-09-14T21:50:07.622Z,18.65
2022-09-14T21:53:07.634Z,18.65
2022-09-14T21:56:07.632Z,18.65
2022-09-14T21:59:07.635Z,18.65
2022-09-14T22:02:07.670Z,18.65
2022-09-14T22:05:07.626Z,18.6
2022-09-14T22:08:07.628Z,18.6
2022-09-14T22:11:07.640Z,18.6
2022-09-14T22:14:07.624Z,18.6
2022-09-14T22:17:07.633Z,18.6
2022-09-14T22:20:07.625Z,18.6
2022-09-14T22:23:07.627Z,18.6
2022-09-14T22:26:07.636Z,18.6
2022-09-14T22:29:07.627Z,18.6
2022-09-14T22:32:07.632Z,18.6
2022-09-14T22:35:07.639Z,18.6
2022-09-14T22:38:07.631Z,18.6
2022-09-14T22:41:07.638Z,18.6
2022-09-14T22:44:07.625Z,18.6
2022-09-14T22:47:07.631Z,18.6
2022-09-14T22:50:07.640Z,18.55
2022-09-14T22:53:07.631Z,18.55
2022-09-14T22:56:07.645Z,18.55
2022-09-14T22:59:07.638Z,18.55
2022-09-14T23:02:07.645Z,18.5
2022-09-14T23:05:07.631Z,18.5
2022-09-14T23:08:07.628Z,18.5
2022-09-14T23:11:07.635Z,18.5
2022-09-14T23:14:07.633Z,18.5
2022-09-14T23:17:07.691Z,18.5
2022-09-14T23:20:07.646Z,18.5
2022-09-14T23:23:07.631Z,18.5
2022-09-14T23:26:07.632Z,18.5
2022-09-14T23:29:07.630Z,18.5
2022-09-14T23:32:07.631Z,18.5
2022-09-14T23:35:07.649Z,18.5
2022-09-14T23:38:07.641Z,18.5
2022-09-14T23:41:07.635Z,18.5
2022-09-14T23:44:07.635Z,18.4
2022-09-14T23:47:07.637Z,18.4
2022-09-14T23:50:07.642Z,18.4
2022-09-14T23:53:07.629Z,18.4
2022-09-14T23:56:07.649Z,18.4
2022-09-14T23:59:07.641Z,18.4
